This is the latest recevied weather packets stored in our database for station/object DL4MGC-10. If no packets are shown the sender has not sent any weather packets the latest 10 day(s).
| Time | Temp. | Humidity | Pressure | Rain* | Wind** | Luminosity | Snow |
|---|---|---|---|---|---|---|---|
| 1788657168 | 15° C | 87% | 1026.2 hPa | - | - | - | - |
| 1788656268 | 15° C | 86% | 1026.3 hPa | - | - | - | - |
| 1788655368 | 15° C | 87% | 1026.2 hPa | - | - | - | - |
| 1788654468 | 13.89° C | 93% | 1026.2 hPa | - | - | - | - |
| 1788653568 | 15° C | 88% | 1026.1 hPa | - | - | - | - |
| 1788652668 | 15° C | 87% | 1026 hPa | - | - | - | - |
| 1788651767 | 15.56° C | 87% | 1026 hPa | - | - | - | - |
| 1788650867 | 15.56° C | 87% | 1026 hPa | - | - | - | - |
| 1788649967 | 15° C | 86% | 1025.9 hPa | - | - | - | - |
| 1788649077 | 14.44° C | 90% | 1026 hPa | - | - | - | - |
| 1788648167 | 17.22° C | 82% | 1025.8 hPa | - | - | - | - |
| 1788647267 | 16.11° C | 86% | 1025.7 hPa | - | - | - | - |
| 1788646367 | 15.56° C | 84% | 1025.5 hPa | - | - | - | - |
| 1788645467 | 16.67° C | 82% | 1025.4 hPa | - | - | - | - |
| 1788644567 | 17.22° C | 81% | 1025.2 hPa | - | - | - | - |
| 1788643666 | 17.22° C | 81% | 1025.2 hPa | - | - | - | - |
| 1788642766 | 17.78° C | 80% | 1025 hPa | - | - | - | - |
| 1788641866 | 17.78° C | 78% | 1025 hPa | - | - | - | - |
| 1788640965 | 18.33° C | 77% | 1024.9 hPa | - | - | - | - |
| 1788640065 | 18.33° C | 78% | 1024.8 hPa | - | - | - | - |
| 1788639165 | 18.89° C | 79% | 1024.9 hPa | - | - | - | - |
| 1788638265 | 18.89° C | 78% | 1024.8 hPa | - | - | - | - |
| 1788637365 | 18.89° C | 76% | 1024.6 hPa | - | - | - | - |
| 1788636465 | 18.33° C | 79% | 1024.4 hPa | - | - | - | - |
| 1788635565 | 20° C | 75% | 1024.5 hPa | - | - | - | - |
* Rain since midnight (hover to see other rain measurements)
** Current wind speed in m/s (hover to see current wind gust speed)